Terminal Aerodrome Forecast
Issued by NWS Cleveland, OH

Home | Current Version | Previous Version | Graphics & Text | Print | Product List | Glossary On
Versions: 1 2 3 4 5 6 7 8 9 10 11 12 13 14 15 16
619
FTUS41 KCLE 261120
TAFERI
TAF
KERI 261120Z 2612/2712 18007KT P6SM SKC
     FM261400 24012G22KT P6SM VCSH BKN040 OVC080
      TEMPO 2618/2622 4SM -TSRA OVC030CB
     FM262300 26012KT P6SM BKN060
     FM270600 24012KT 5SM -SHRA OVC025=

USA.gov is the U.S. government's official web portal to all federal, state and local government web resources and services.